createdAt,value
2022-10-09T00:00:48.404Z,16.48
2022-10-09T00:03:17.166Z,16.44
2022-10-09T00:05:45.369Z,16.42
2022-10-09T00:08:12.176Z,16.48
2022-10-09T00:10:43.128Z,16.44
2022-10-09T00:13:09.912Z,16.46
2022-10-09T00:15:41.431Z,16.38
2022-10-09T00:18:09.812Z,16.34
2022-10-09T00:20:41.656Z,16.41
2022-10-09T00:23:09.414Z,16.39
2022-10-09T00:25:36.462Z,16.36
2022-10-09T00:28:04.679Z,16.37
2022-10-09T00:30:31.670Z,16.38
2022-10-09T00:32:58.387Z,16.45
2022-10-09T00:35:25.032Z,16.47
2022-10-09T00:37:51.859Z,16.56
2022-10-09T00:40:18.438Z,16.48
2022-10-09T00:42:45.698Z,16.43
2022-10-09T00:45:19.915Z,16.44
2022-10-09T00:47:53.565Z,16.38
2022-10-09T00:50:40.123Z,16.50
2022-10-09T00:53:07.998Z,16.55
2022-10-09T00:55:35.776Z,16.50
2022-10-09T00:58:02.672Z,16.50
2022-10-09T01:00:29.505Z,16.42
2022-10-09T01:02:56.201Z,16.47
2022-10-09T01:05:32.342Z,16.48
2022-10-09T01:08:16.847Z,16.51
2022-10-09T01:11:06.832Z,16.56
2022-10-09T01:13:38.849Z,16.54
2022-10-09T01:16:22.833Z,16.42
2022-10-09T01:19:08.915Z,16.33
2022-10-09T01:21:44.327Z,16.34
2022-10-09T01:24:13.880Z,16.30
2022-10-09T01:27:01.692Z,16.25
2022-10-09T01:29:35.389Z,16.28
2022-10-09T01:32:04.432Z,16.33
2022-10-09T01:34:32.538Z,16.31
2022-10-09T01:37:00.093Z,16.33
2022-10-09T01:39:28.980Z,16.31
2022-10-09T01:41:56.694Z,16.29
2022-10-09T01:44:31.471Z,16.29
2022-10-09T01:46:59.362Z,16.30
2022-10-09T01:49:37.815Z,16.30
2022-10-09T01:52:16.353Z,16.30
2022-10-09T01:54:59.913Z,16.35
2022-10-09T01:57:33.798Z,16.35
2022-10-09T02:00:07.238Z,16.35
2022-10-09T02:02:40.127Z,16.37
2022-10-09T02:05:09.522Z,16.30
2022-10-09T02:07:37.156Z,16.33
2022-10-09T02:10:05.949Z,16.29
2022-10-09T02:12:38.349Z,16.30
2022-10-09T02:15:05.747Z,16.31
2022-10-09T02:17:36.786Z,16.27
2022-10-09T02:20:11.865Z,16.31
2022-10-09T02:22:38.706Z,16.32
2022-10-09T02:25:06.716Z,16.35
2022-10-09T02:27:34.015Z,16.38
2022-10-09T02:30:01.334Z,16.38
2022-10-09T02:32:28.906Z,16.42
2022-10-09T02:34:55.520Z,16.41
2022-10-09T02:37:22.116Z,16.44
2022-10-09T02:39:49.112Z,16.34
2022-10-09T02:42:16.084Z,16.26
2022-10-09T02:44:42.707Z,16.27
2022-10-09T02:47:09.605Z,16.24
2022-10-09T02:49:36.199Z,16.24
2022-10-09T02:52:02.902Z,16.28
2022-10-09T02:54:29.517Z,16.24
2022-10-09T02:56:56.185Z,16.23
2022-10-09T02:59:22.788Z,16.23
2022-10-09T03:01:49.550Z,16.23
2022-10-09T03:04:16.404Z,16.24
2022-10-09T03:06:43.003Z,16.24
2022-10-09T03:09:09.562Z,16.27
2022-10-09T03:11:36.344Z,16.26
2022-10-09T03:14:02.909Z,16.35
2022-10-09T03:16:29.641Z,16.35
2022-10-09T03:18:56.468Z,16.36
2022-10-09T03:21:25.852Z,16.35
2022-10-09T03:23:53.584Z,16.34
2022-10-09T03:26:23.437Z,16.34
2022-10-09T03:28:51.970Z,16.29
2022-10-09T03:31:50.434Z,16.28
2022-10-09T03:34:07.432Z,16.25
2022-10-09T03:36:39.755Z,16.19
2022-10-09T03:39:06.417Z,16.19
2022-10-09T03:41:32.978Z,16.18
2022-10-09T03:43:59.628Z,16.20
2022-10-09T03:46:26.258Z,16.18
2022-10-09T03:48:52.912Z,16.14
2022-10-09T03:51:19.478Z,16.17
2022-10-09T03:53:46.122Z,16.16
2022-10-09T03:56:12.722Z,16.20
2022-10-09T03:58:39.329Z,16.22
2022-10-09T04:01:05.976Z,16.24
2022-10-09T04:03:32.814Z,16.26
2022-10-09T04:05:59.463Z,16.29
2022-10-09T04:08:26.419Z,16.28
2022-10-09T04:10:58.298Z,16.17
2022-10-09T04:13:25.204Z,16.00
2022-10-09T04:15:53.461Z,16.01
2022-10-09T04:18:20.286Z,16.04
2022-10-09T04:20:54.894Z,15.97
2022-10-09T04:23:24.539Z,15.99
2022-10-09T04:25:55.846Z,15.98
2022-10-09T04:28:23.545Z,16.05
2022-10-09T04:30:50.501Z,16.06
2022-10-09T04:33:17.147Z,16.08
2022-10-09T04:35:44.735Z,16.05
2022-10-09T04:38:12.003Z,16.00
2022-10-09T04:40:38.658Z,16.04
2022-10-09T04:43:05.306Z,16.06
2022-10-09T04:45:32.108Z,16.11
2022-10-09T04:47:58.758Z,16.17
2022-10-09T04:50:25.388Z,16.19
2022-10-09T04:52:58.193Z,16.17
2022-10-09T04:55:24.831Z,16.12
2022-10-09T04:57:51.370Z,16.00
2022-10-09T05:00:18.145Z,15.97
2022-10-09T05:02:44.673Z,15.95
2022-10-09T05:05:11.883Z,15.92
2022-10-09T05:07:38.694Z,15.89
2022-10-09T05:10:06.278Z,15.85
2022-10-09T05:12:32.824Z,15.87
2022-10-09T05:14:59.591Z,15.80
2022-10-09T05:17:26.182Z,15.88
2022-10-09T05:19:52.812Z,15.88
2022-10-09T05:22:19.361Z,15.86
2022-10-09T05:24:46.014Z,15.84
2022-10-09T05:27:12.732Z,15.92
2022-10-09T05:29:39.395Z,15.90
2022-10-09T05:32:06.135Z,15.90
2022-10-09T05:34:34.005Z,15.95
2022-10-09T05:37:00.660Z,15.91
2022-10-09T05:39:27.245Z,15.90
2022-10-09T05:41:53.794Z,15.89
2022-10-09T05:44:20.503Z,15.82
2022-10-09T05:46:47.091Z,15.67
2022-10-09T05:49:13.760Z,15.70
2022-10-09T05:51:42.865Z,15.73
2022-10-09T05:54:14.337Z,15.74
2022-10-09T05:56:42.449Z,15.68
2022-10-09T05:59:13.766Z,15.70
2022-10-09T06:01:46.782Z,15.78
2022-10-09T06:04:16.686Z,15.77
2022-10-09T06:06:44.148Z,15.73
2022-10-09T06:09:11.797Z,15.78
2022-10-09T06:11:39.722Z,15.82
2022-10-09T06:14:08.936Z,15.77
2022-10-09T06:16:38.514Z,15.58
2022-10-09T06:19:06.334Z,15.55
2022-10-09T06:21:33.397Z,15.53
2022-10-09T06:24:02.133Z,15.45
2022-10-09T06:26:29.921Z,15.40
2022-10-09T06:28:58.518Z,15.57
2022-10-09T06:31:28.142Z,15.57
2022-10-09T06:33:55.570Z,15.58
2022-10-09T06:36:28.034Z,15.46
2022-10-09T06:38:55.271Z,15.35
2022-10-09T06:41:24.513Z,15.49
2022-10-09T06:43:52.637Z,15.45
2022-10-09T06:46:21.075Z,15.36
2022-10-09T06:48:48.127Z,15.29
2022-10-09T06:51:17.457Z,15.29
2022-10-09T06:53:49.790Z,15.33
2022-10-09T06:56:18.032Z,15.28
2022-10-09T06:58:45.137Z,15.20
2022-10-09T07:01:20.260Z,15.13
2022-10-09T07:03:52.264Z,15.20
2022-10-09T07:06:24.954Z,15.22
2022-10-09T07:08:58.887Z,15.21
2022-10-09T07:11:28.053Z,15.23
2022-10-09T07:14:00.090Z,15.28
2022-10-09T07:16:33.695Z,15.32
2022-10-09T07:19:03.555Z,15.38
2022-10-09T07:21:30.349Z,15.41
2022-10-09T07:24:00.138Z,15.44
2022-10-09T07:26:28.760Z,15.47
2022-10-09T07:28:56.001Z,15.43
2022-10-09T07:31:23.298Z,15.45
2022-10-09T07:33:51.592Z,15.51
2022-10-09T07:36:18.786Z,15.40
2022-10-09T07:38:50.727Z,15.48
2022-10-09T07:41:17.731Z,15.52
2022-10-09T07:43:44.277Z,15.52
2022-10-09T07:46:13.699Z,15.45
2022-10-09T07:48:40.936Z,15.36
2022-10-09T07:51:13.449Z,15.43
2022-10-09T07:53:40.041Z,15.45
2022-10-09T07:56:07.395Z,15.42
2022-10-09T07:58:34.085Z,15.40
2022-10-09T08:01:05.969Z,15.40
2022-10-09T08:03:33.263Z,15.37
2022-10-09T08:06:00.057Z,15.35
2022-10-09T08:08:26.913Z,15.35
2022-10-09T08:10:53.589Z,15.26
2022-10-09T08:13:20.217Z,15.23
2022-10-09T08:15:46.877Z,15.26
2022-10-09T08:18:13.618Z,15.28
2022-10-09T08:20:40.312Z,15.25
2022-10-09T08:23:07.010Z,15.24
2022-10-09T08:25:37.429Z,15.26
2022-10-09T08:28:05.158Z,15.21
2022-10-09T08:30:32.036Z,15.19
2022-10-09T08:32:58.827Z,15.20
2022-10-09T08:35:25.426Z,15.23
2022-10-09T08:37:52.035Z,15.27
2022-10-09T08:40:58.103Z,15.28
2022-10-09T08:43:54.525Z,15.28
2022-10-09T08:46:26.210Z,15.32
2022-10-09T08:48:54.820Z,15.33
2022-10-09T08:51:28.142Z,15.28
2022-10-09T08:54:01.067Z,15.31
2022-10-09T08:56:30.040Z,15.29
2022-10-09T08:58:57.022Z,15.24
2022-10-09T09:01:34.576Z,15.28
2022-10-09T09:04:23.102Z,15.28
2022-10-09T09:06:49.735Z,15.29
2022-10-09T09:09:38.133Z,15.31
2022-10-09T09:12:34.396Z,15.35
2022-10-09T09:15:23.463Z,15.33
2022-10-09T09:18:06.422Z,15.35
2022-10-09T09:20:48.352Z,15.35
2022-10-09T09:23:16.458Z,15.38
2022-10-09T09:25:45.780Z,15.37
2022-10-09T09:28:18.440Z,15.34
2022-10-09T09:30:50.656Z,15.39
2022-10-09T09:33:44.633Z,15.35
2022-10-09T09:36:28.252Z,15.37
2022-10-09T09:39:36.275Z,15.37
2022-10-09T09:41:43.673Z,15.36
2022-10-09T09:44:13.069Z,15.32
2022-10-09T09:46:41.791Z,15.31
2022-10-09T09:49:27.250Z,15.33
2022-10-09T09:51:56.239Z,15.37
2022-10-09T09:54:25.799Z,15.36
2022-10-09T09:57:15.886Z,15.29
2022-10-09T09:59:44.104Z,15.42
2022-10-09T10:02:17.165Z,15.39
2022-10-09T10:04:56.432Z,15.39
2022-10-09T10:07:36.312Z,15.40
2022-10-09T10:10:25.621Z,15.38
2022-10-09T10:12:58.703Z,15.40
2022-10-09T10:15:27.542Z,15.41
2022-10-09T10:18:06.721Z,15.40
2022-10-09T10:20:44.795Z,15.38
2022-10-09T10:23:33.276Z,15.34
2022-10-09T10:26:05.849Z,15.37
2022-10-09T10:28:41.560Z,15.40
2022-10-09T10:31:16.246Z,15.40
2022-10-09T10:33:47.933Z,15.40
2022-10-09T10:36:15.045Z,15.42
2022-10-09T10:38:52.619Z,15.43
2022-10-09T10:41:27.959Z,15.45
2022-10-09T10:44:17.925Z,15.50
2022-10-09T10:46:52.460Z,15.46
2022-10-09T10:49:23.282Z,15.49
2022-10-09T10:52:04.392Z,15.53
2022-10-09T10:54:43.013Z,15.53
2022-10-09T10:57:33.391Z,15.58
2022-10-09T11:00:14.014Z,15.60
2022-10-09T11:02:59.403Z,15.58
2022-10-09T11:05:30.199Z,15.57
2022-10-09T11:08:24.516Z,15.50
2022-10-09T11:11:19.476Z,15.44
2022-10-09T11:13:56.492Z,15.40
2022-10-09T11:17:04.417Z,15.41
2022-10-09T11:20:05.429Z,15.52
2022-10-09T11:22:53.436Z,15.51
2022-10-09T11:25:40.680Z,15.38
2022-10-09T11:28:22.817Z,15.35
2022-10-09T11:31:20.448Z,15.40
2022-10-09T11:33:52.032Z,15.36
2022-10-09T11:36:25.136Z,15.28
2022-10-09T11:38:57.633Z,15.25
2022-10-09T11:41:26.494Z,15.29
2022-10-09T11:44:05.266Z,15.24
2022-10-09T11:46:50.042Z,15.29
2022-10-09T11:49:23.170Z,15.33
2022-10-09T11:52:04.126Z,15.32
2022-10-09T11:54:31.079Z,15.30
2022-10-09T11:57:06.193Z,15.31
2022-10-09T11:59:36.565Z,15.35
2022-10-09T12:02:39.006Z,15.27
2022-10-09T12:05:44.602Z,15.30
2022-10-09T12:08:19.212Z,15.27
2022-10-09T12:11:00.317Z,15.27
2022-10-09T12:13:39.099Z,15.21
2022-10-09T12:16:07.758Z,15.30
2022-10-09T12:18:39.032Z,15.32
2022-10-09T12:21:09.050Z,15.37
2022-10-09T12:23:41.015Z,15.36
2022-10-09T12:26:13.045Z,15.40
2022-10-09T12:28:45.980Z,15.33
2022-10-09T12:31:21.491Z,15.30
2022-10-09T12:33:51.580Z,15.35
2022-10-09T12:36:26.770Z,15.31
2022-10-09T12:38:54.056Z,15.33
2022-10-09T12:41:26.654Z,15.34
2022-10-09T12:43:55.365Z,15.33
2022-10-09T12:46:30.536Z,15.31
2022-10-09T12:48:58.480Z,15.37
2022-10-09T12:51:26.963Z,15.35
2022-10-09T12:53:54.652Z,15.36
2022-10-09T12:56:25.442Z,15.36
2022-10-09T12:58:53.433Z,15.27
2022-10-09T13:01:21.363Z,15.29
2022-10-09T13:04:04.235Z,15.29
2022-10-09T13:06:38.395Z,15.30
2022-10-09T13:09:07.444Z,15.26
2022-10-09T13:11:35.439Z,15.27
2022-10-09T13:14:02.346Z,15.28
2022-10-09T13:16:42.129Z,15.25
2022-10-09T13:19:38.266Z,15.27
2022-10-09T13:22:18.479Z,15.23
2022-10-09T13:24:45.413Z,15.25
2022-10-09T13:27:14.650Z,15.33
2022-10-09T13:29:43.011Z,15.38
2022-10-09T13:32:13.225Z,15.37
2022-10-09T13:34:40.198Z,15.37
2022-10-09T13:37:06.841Z,15.39
2022-10-09T13:39:33.693Z,15.38
2022-10-09T13:42:01.990Z,15.39
2022-10-09T13:44:28.797Z,15.46
2022-10-09T13:46:55.565Z,15.53
2022-10-09T13:49:22.234Z,15.53
2022-10-09T13:51:48.874Z,15.44
2022-10-09T13:54:15.620Z,15.47
2022-10-09T13:56:42.193Z,15.41
2022-10-09T13:59:08.904Z,15.42
2022-10-09T14:01:35.636Z,15.42
2022-10-09T14:04:02.491Z,15.40
2022-10-09T14:06:29.058Z,15.35
2022-10-09T14:08:57.399Z,15.26
2022-10-09T14:11:24.108Z,15.36
2022-10-09T14:13:50.682Z,15.44
2022-10-09T14:16:17.338Z,15.42
2022-10-09T14:18:44.078Z,15.37
2022-10-09T14:21:16.042Z,15.31
2022-10-09T14:23:43.355Z,15.26
2022-10-09T14:26:10.105Z,15.28
2022-10-09T14:28:37.074Z,15.23
2022-10-09T14:31:07.645Z,15.32
2022-10-09T14:33:34.713Z,15.37
2022-10-09T14:36:09.461Z,15.30
2022-10-09T14:38:40.407Z,15.35
2022-10-09T14:41:07.801Z,15.36
2022-10-09T14:43:35.480Z,15.47
2022-10-09T14:46:04.835Z,15.36
2022-10-09T14:48:31.447Z,15.16
2022-10-09T14:51:03.197Z,15.24
2022-10-09T14:53:29.957Z,15.16
2022-10-09T14:56:00.130Z,15.13
2022-10-09T14:58:29.320Z,15.14
2022-10-09T15:00:56.246Z,15.09
2022-10-09T15:03:23.061Z,15.10
2022-10-09T15:05:49.816Z,15.08
2022-10-09T15:08:16.518Z,15.01
2022-10-09T15:10:46.206Z,15.06
2022-10-09T15:13:12.913Z,15.07
2022-10-09T15:15:39.819Z,15.07
2022-10-09T15:18:06.564Z,15.03
2022-10-09T15:20:33.425Z,15.03
2022-10-09T15:23:00.098Z,15.11
2022-10-09T15:25:31.636Z,15.08
2022-10-09T15:28:00.758Z,15.00
2022-10-09T15:30:29.049Z,15.04
2022-10-09T15:32:56.305Z,14.89
2022-10-09T15:35:23.374Z,14.94
2022-10-09T15:37:53.738Z,15.01
2022-10-09T15:40:22.575Z,15.06
2022-10-09T15:42:49.727Z,15.06
2022-10-09T15:45:16.637Z,15.07
2022-10-09T15:47:51.015Z,15.07
2022-10-09T15:50:18.347Z,15.08
2022-10-09T15:52:44.927Z,15.09
2022-10-09T15:55:11.591Z,15.11
2022-10-09T15:57:38.231Z,15.15
2022-10-09T16:00:05.706Z,15.17
2022-10-09T16:02:32.425Z,15.12
2022-10-09T16:04:59.142Z,15.04
2022-10-09T16:07:25.801Z,15.05
2022-10-09T16:09:52.930Z,15.02
2022-10-09T16:12:19.665Z,15.15
2022-10-09T16:14:46.295Z,15.20
2022-10-09T16:17:12.925Z,15.20
2022-10-09T16:19:39.736Z,15.22
2022-10-09T16:22:06.726Z,15.14
2022-10-09T16:24:33.696Z,15.17
2022-10-09T16:27:00.542Z,15.19
2022-10-09T16:29:27.278Z,15.23
2022-10-09T16:31:56.072Z,15.12
2022-10-09T16:34:22.911Z,15.11
2022-10-09T16:36:49.607Z,15.09
2022-10-09T16:39:17.281Z,15.07
2022-10-09T16:41:44.016Z,15.07
2022-10-09T16:44:13.805Z,15.05
2022-10-09T16:46:40.447Z,15.14
2022-10-09T16:49:07.282Z,15.09
2022-10-09T16:51:36.231Z,15.04
2022-10-09T16:54:05.336Z,15.04
2022-10-09T16:56:35.005Z,15.03
2022-10-09T16:59:05.251Z,14.91
2022-10-09T17:01:32.968Z,14.94
2022-10-09T17:04:00.280Z,14.97
2022-10-09T17:06:27.195Z,14.95
2022-10-09T17:08:57.573Z,15.00
2022-10-09T17:11:25.788Z,14.95
2022-10-09T17:13:56.643Z,15.01
2022-10-09T17:16:27.047Z,15.01
2022-10-09T17:18:54.413Z,14.91
2022-10-09T17:21:21.351Z,14.99
2022-10-09T17:23:48.277Z,14.89
2022-10-09T17:26:17.227Z,14.89
2022-10-09T17:28:44.524Z,14.85
2022-10-09T17:31:16.778Z,14.90
2022-10-09T17:33:45.994Z,14.88
2022-10-09T17:36:15.283Z,14.88
2022-10-09T17:38:42.089Z,14.87
2022-10-09T17:41:11.490Z,14.77
2022-10-09T17:43:38.847Z,14.75
2022-10-09T17:46:06.065Z,14.68
2022-10-09T17:48:34.136Z,14.75
2022-10-09T17:51:03.920Z,14.84
2022-10-09T17:53:31.338Z,14.80
2022-10-09T17:56:03.201Z,14.79
2022-10-09T17:58:29.978Z,14.79
2022-10-09T18:00:56.647Z,14.84
2022-10-09T18:03:23.412Z,14.81
2022-10-09T18:05:51.418Z,14.76
2022-10-09T18:08:19.671Z,14.79
2022-10-09T18:10:46.451Z,14.75
2022-10-09T18:13:13.169Z,14.76
2022-10-09T18:15:42.060Z,14.76
2022-10-09T18:18:10.340Z,14.77
2022-10-09T18:20:38.525Z,14.80
2022-10-09T18:23:05.710Z,14.82
2022-10-09T18:25:32.884Z,14.87
2022-10-09T18:27:59.946Z,14.84
2022-10-09T18:30:27.766Z,14.83
2022-10-09T18:32:54.605Z,14.84
2022-10-09T18:35:21.328Z,14.83
2022-10-09T18:37:48.052Z,14.85
2022-10-09T18:40:14.636Z,14.87
2022-10-09T18:42:41.451Z,14.88
2022-10-09T18:45:10.334Z,14.87
2022-10-09T18:47:37.057Z,14.90
2022-10-09T18:50:07.994Z,14.88
2022-10-09T18:52:36.922Z,14.90
2022-10-09T18:55:06.140Z,14.85
2022-10-09T18:57:34.204Z,14.81
2022-10-09T19:00:01.944Z,14.81
2022-10-09T19:02:28.763Z,14.86
2022-10-09T19:04:55.550Z,14.88
2022-10-09T19:07:22.440Z,14.80
2022-10-09T19:09:53.608Z,14.75
2022-10-09T19:12:23.182Z,14.70
2022-10-09T19:14:49.902Z,14.68
2022-10-09T19:17:16.882Z,14.72
2022-10-09T19:19:43.656Z,14.70
2022-10-09T19:22:14.866Z,14.78
2022-10-09T19:24:43.727Z,14.71
2022-10-09T19:27:10.497Z,14.74
2022-10-09T19:29:37.356Z,14.79
2022-10-09T19:32:04.096Z,14.73
2022-10-09T19:34:30.889Z,14.70
2022-10-09T19:36:57.723Z,14.73
2022-10-09T19:39:24.398Z,14.73
2022-10-09T19:41:51.160Z,14.69
2022-10-09T19:44:18.595Z,14.67
2022-10-09T19:46:45.895Z,14.72
2022-10-09T19:49:12.735Z,14.70
2022-10-09T19:51:39.577Z,14.70
2022-10-09T19:54:07.979Z,14.71
2022-10-09T19:56:36.108Z,14.74
2022-10-09T19:59:05.694Z,14.74
2022-10-09T20:01:35.264Z,14.65
2022-10-09T20:04:07.553Z,14.72
2022-10-09T20:06:36.891Z,14.69
2022-10-09T20:09:04.894Z,14.70
2022-10-09T20:11:32.028Z,14.70
2022-10-09T20:13:58.832Z,14.69
2022-10-09T20:16:27.740Z,14.69
2022-10-09T20:18:55.392Z,14.68
2022-10-09T20:21:22.171Z,14.67
2022-10-09T20:23:48.731Z,14.68
2022-10-09T20:26:18.406Z,14.69
2022-10-09T20:28:46.322Z,14.75
2022-10-09T20:31:18.027Z,14.72
2022-10-09T20:33:46.015Z,14.60
2022-10-09T20:36:32.530Z,14.69
2022-10-09T20:39:00.854Z,14.71
2022-10-09T20:41:29.328Z,14.68
2022-10-09T20:43:58.290Z,14.72
2022-10-09T20:46:27.911Z,14.74
2022-10-09T20:48:55.038Z,14.72
2022-10-09T20:51:22.396Z,14.72
2022-10-09T20:53:57.731Z,14.67
2022-10-09T20:56:26.053Z,14.65
2022-10-09T20:58:54.225Z,14.63
2022-10-09T21:01:22.024Z,14.70
2022-10-09T21:03:49.786Z,14.67
2022-10-09T21:06:19.747Z,14.80
2022-10-09T21:08:46.518Z,14.68
2022-10-09T21:11:19.546Z,14.71
2022-10-09T21:13:49.505Z,14.70
2022-10-09T21:16:22.335Z,14.65
2022-10-09T21:18:54.351Z,14.66
2022-10-09T21:21:21.140Z,14.64
2022-10-09T21:23:54.249Z,14.67
2022-10-09T21:26:22.840Z,14.68
2022-10-09T21:28:52.444Z,14.66
2022-10-09T21:31:26.037Z,14.65
2022-10-09T21:33:53.003Z,14.71
2022-10-09T21:36:30.591Z,14.68
2022-10-09T21:38:57.651Z,14.67
2022-10-09T21:41:24.609Z,14.65
2022-10-09T21:43:51.460Z,14.67
2022-10-09T21:46:18.018Z,14.69
2022-10-09T21:48:44.957Z,14.70
2022-10-09T21:51:11.604Z,14.66
2022-10-09T21:53:38.445Z,14.65
2022-10-09T21:56:06.698Z,14.67
2022-10-09T21:58:33.458Z,14.72
2022-10-09T22:01:01.444Z,14.71
2022-10-09T22:03:30.386Z,14.70
2022-10-09T22:05:57.322Z,14.73
2022-10-09T22:08:24.756Z,14.72
2022-10-09T22:10:52.318Z,14.76
2022-10-09T22:13:20.239Z,14.68
2022-10-09T22:15:50.921Z,14.65
2022-10-09T22:18:19.074Z,14.65
2022-10-09T22:20:49.214Z,14.63
2022-10-09T22:23:18.027Z,14.62
2022-10-09T22:25:44.948Z,14.64
2022-10-09T22:28:11.664Z,14.62
2022-10-09T22:30:38.228Z,14.58
2022-10-09T22:33:04.907Z,14.61
2022-10-09T22:35:31.509Z,14.54
2022-10-09T22:37:58.162Z,14.56
2022-10-09T22:40:24.732Z,14.57
2022-10-09T22:42:51.719Z,14.55
2022-10-09T22:45:18.550Z,14.60
2022-10-09T22:47:47.494Z,14.61
2022-10-09T22:50:14.435Z,14.57
2022-10-09T22:52:41.033Z,14.60
2022-10-09T22:55:08.031Z,14.53
2022-10-09T22:57:34.745Z,14.58
2022-10-09T23:00:01.283Z,14.59
2022-10-09T23:02:27.878Z,14.63
2022-10-09T23:04:54.509Z,14.57
2022-10-09T23:07:21.161Z,14.58
2022-10-09T23:09:47.771Z,14.62
2022-10-09T23:12:14.583Z,14.63
2022-10-09T23:14:41.120Z,14.65
2022-10-09T23:17:07.766Z,14.60
2022-10-09T23:19:34.762Z,14.54
2022-10-09T23:22:01.494Z,14.55
2022-10-09T23:24:28.049Z,14.53
2022-10-09T23:26:54.715Z,14.57
2022-10-09T23:29:21.340Z,14.53
2022-10-09T23:31:51.509Z,14.50
2022-10-09T23:34:18.227Z,14.46
2022-10-09T23:36:44.776Z,14.38
2022-10-09T23:39:12.674Z,14.42
2022-10-09T23:41:39.524Z,14.39
2022-10-09T23:44:06.207Z,14.41
2022-10-09T23:46:33.803Z,14.41
2022-10-09T23:49:01.156Z,14.35
2022-10-09T23:51:28.539Z,14.42
2022-10-09T23:53:55.732Z,14.42
2022-10-09T23:56:27.953Z,14.35
2022-10-09T23:58:55.713Z,14.41
